Time;durP1;ratioP1;P1;durP2;ratioP2;P2;SDS_P1;SDS_P2;PMS_P1;PMS_P2;Temp;Humidity;BMP_temperature;BMP_pressure;BME280_temperature;BME280_humidity;BME280_pressure;Samples;Min_cycle;Max_cycle;Signal;HPM_P1;HPM_P2
2023/04/26 00:02:30;;;;;;;1.10;1.00;;;9.50;74.20;;;;;;4976957;28;20515;-79
2023/04/26 00:05:13;;;;;;;1.00;1.00;;;9.50;74.20;;;;;;4988789;28;20444;-83
2023/04/26 00:07:52;;;;;;;1.07;0.90;;;9.40;74.30;;;;;;4972539;28;20486;-83
2023/04/26 00:10:40;;;;;;;1.00;0.70;;;9.40;74.40;;;;;;4974865;28;20527;-81
2023/04/26 00:13:21;;;;;;;1.83;1.17;;;9.30;74.40;;;;;;4975147;28;20440;-81
2023/04/26 00:15:59;;;;;;;1.37;1.10;;;9.30;74.90;;;;;;4965973;28;20460;-84
2023/04/26 00:18:45;;;;;;;2.13;1.43;;;9.20;75.10;;;;;;4976178;28;20567;-83
2023/04/26 00:21:25;;;;;;;1.17;1.07;;;9.20;75.50;;;;;;4980752;28;20471;-84
2023/04/26 00:24:06;;;;;;;1.70;1.10;;;9.20;75.70;;;;;;4990411;28;20516;-80
2023/04/26 00:26:39;;;;;;;1.67;1.33;;;9.20;76.10;;;;;;4991878;28;20471;-82
2023/04/26 00:29:13;;;;;;;1.87;1.07;;;9.10;76.10;;;;;;4990027;28;20468;-81
2023/04/26 00:32:06;;;;;;;0.90;0.90;;;9.10;76.30;;;;;;4973640;28;20439;-82
2023/04/26 00:34:44;;;;;;;1.80;1.00;;;9.10;76.40;;;;;;4993954;28;20466;-82
2023/04/26 00:37:20;;;;;;;3.03;1.30;;;9.10;76.30;;;;;;4980306;28;20822;-82
2023/04/26 00:40:28;;;;;;;1.27;1.17;;;9.00;76.40;;;;;;4977502;28;20456;-81
2023/04/26 00:43:07;;;;;;;4.40;1.17;;;9.10;76.90;;;;;;4977261;28;20521;-82
2023/04/26 00:45:47;;;;;;;4.30;1.40;;;9.00;76.80;;;;;;4976645;28;20515;-82
2023/04/26 00:48:33;;;;;;;1.80;1.27;;;9.00;77.30;;;;;;4973046;28;21014;-81
2023/04/26 00:51:37;;;;;;;1.93;0.83;;;9.10;77.60;;;;;;4981851;28;20448;-80
2023/04/26 00:54:20;;;;;;;1.00;1.00;;;9.10;77.60;;;;;;4967945;28;20444;-83
2023/04/26 00:57:15;;;;;;;1.73;1.23;;;9.00;77.40;;;;;;4976010;28;20452;-83
2023/04/26 00:59:51;;;;;;;2.10;1.60;;;9.00;77.80;;;;;;4970138;28;21004;-82
2023/04/26 01:02:50;;;;;;;3.27;1.50;;;8.90;78.20;;;;;;4976020;28;20543;-80
2023/04/26 01:05:25;;;;;;;2.33;2.23;;;8.90;78.90;;;;;;4980994;28;20577;-83
2023/04/26 01:08:08;;;;;;;2.07;1.50;;;8.90;79.10;;;;;;4975486;28;20492;-83
2023/04/26 01:10:50;;;;;;;1.57;1.47;;;8.90;79.40;;;;;;4980275;28;20514;-83
2023/04/26 01:13:43;;;;;;;1.47;1.37;;;8.80;79.60;;;;;;4970963;28;20501;-81
2023/04/26 01:16:21;;;;;;;3.47;1.50;;;8.80;79.80;;;;;;4976791;28;20452;-81
2023/04/26 01:19:28;;;;;;;1.80;1.40;;;8.80;80.10;;;;;;4964627;28;20480;-83
2023/04/26 01:22:09;;;;;;;2.40;1.53;;;8.80;80.20;;;;;;4969367;28;21024;-82
2023/04/26 01:24:59;;;;;;;1.63;1.50;;;8.80;80.50;;;;;;4981682;28;20511;-81
2023/04/26 01:27:46;;;;;;;2.50;1.37;;;8.70;80.70;;;;;;4978967;28;20568;-82
2023/04/26 01:30:28;;;;;;;1.97;1.23;;;8.70;81.10;;;;;;4983337;28;20440;-82
2023/04/26 01:33:04;;;;;;;2.90;1.80;;;8.70;81.20;;;;;;4979571;28;20464;-82
2023/04/26 01:35:43;;;;;;;3.03;1.20;;;8.70;81.50;;;;;;4974620;28;20508;-81
2023/04/26 01:38:23;;;;;;;2.10;1.13;;;8.70;81.50;;;;;;4986286;23;20488;-81
2023/04/26 01:41:19;;;;;;;1.70;1.30;;;8.70;81.80;;;;;;4961852;28;20449;-83
2023/04/26 01:44:18;;;;;;;2.57;1.50;;;8.70;82.10;;;;;;4963236;28;20436;-83
2023/04/26 01:46:54;;;;;;;1.80;1.70;;;8.70;82.40;;;;;;4972652;28;20467;-83
2023/04/26 01:49:26;;;;;;;1.43;1.33;;;8.70;82.50;;;;;;4972931;28;20457;-81
2023/04/26 01:52:21;;;;;;;3.50;1.40;;;8.70;82.60;;;;;;4970739;28;20445;-83
2023/04/26 01:54:57;;;;;;;1.73;1.63;;;8.60;82.70;;;;;;4965254;28;20547;-83
2023/04/26 01:57:47;;;;;;;4.23;1.40;;;8.60;83.00;;;;;;4945515;28;20468;-82
2023/04/26 02:00:22;;;;;;;2.87;1.40;;;8.60;83.10;;;;;;4959497;28;20426;-82
2023/04/26 02:02:55;;;;;;;2.60;1.50;;;8.60;83.00;;;;;;4956710;29;20509;-82
2023/04/26 02:05:34;;;;;;;2.30;1.83;;;8.60;83.10;;;;;;4966539;28;20453;-81
2023/04/26 02:08:23;;;;;;;4.80;1.70;;;8.70;83.30;;;;;;4978146;28;20472;-80
2023/04/26 02:11:05;;;;;;;1.60;1.50;;;8.60;83.20;;;;;;4956713;28;20456;-81
2023/04/26 02:13:46;;;;;;;4.40;1.73;;;8.60;83.40;;;;;;4959865;28;20484;-83
2023/04/26 02:16:16;;;;;;;1.80;1.70;;;8.60;83.80;;;;;;4955256;28;20457;-82
2023/04/26 02:18:52;;;;;;;2.03;1.50;;;8.60;83.80;;;;;;4966693;28;20475;-82
2023/04/26 02:21:29;;;;;;;3.83;1.70;;;8.60;84.00;;;;;;4973418;28;20491;-82
2023/04/26 02:24:06;;;;;;;2.37;2.03;;;8.40;84.00;;;;;;4973808;28;20680;-82
2023/04/26 02:26:42;;;;;;;2.37;1.80;;;8.40;84.60;;;;;;4973462;28;20429;-81
2023/04/26 02:29:15;;;;;;;2.17;2.00;;;8.40;85.00;;;;;;4973820;28;20484;-80
2023/04/26 02:32:11;;;;;;;2.17;1.83;;;8.40;85.20;;;;;;4972020;28;20475;-81
2023/04/26 02:34:49;;;;;;;1.97;1.87;;;8.40;85.30;;;;;;5107173;23;20500;-82
2023/04/26 02:37:20;;;;;;;2.13;2.03;;;8.40;85.60;;;;;;4976853;28;20449;-80
2023/04/26 02:39:56;;;;;;;1.60;1.50;;;8.30;85.80;;;;;;4953306;29;20469;-82
2023/04/26 02:42:26;;;;;;;3.17;1.87;;;8.60;86.00;;;;;;4956445;28;20478;-83
2023/04/26 02:44:57;;;;;;;2.30;2.10;;;8.40;85.50;;;;;;4951304;29;20472;-80
2023/04/26 02:47:29;;;;;;;3.73;1.87;;;8.40;85.90;;;;;;4955756;28;20851;-82
2023/04/26 02:49:59;;;;;;;5.60;2.70;;;8.30;86.00;;;;;;4950410;28;20481;-80
2023/04/26 02:52:26;;;;;;;1.80;1.70;;;8.30;86.60;;;;;;4964961;29;20453;-82
2023/04/26 02:54:56;;;;;;;3.07;2.20;;;8.40;86.50;;;;;;4954646;28;20499;-81
2023/04/26 02:57:39;;;;;;;4.10;2.17;;;8.50;86.60;;;;;;4940685;29;21408;-80
2023/04/26 03:00:26;;;;;;;2.00;1.83;;;8.30;86.10;;;;;;4959417;29;20464;-83
2023/04/26 03:03:06;;;;;;;4.93;2.13;;;8.30;86.70;;;;;;4940989;29;20495;-83
2023/04/26 03:05:47;;;;;;;3.03;2.27;;;8.20;87.00;;;;;;4943873;29;20434;-83
2023/04/26 03:08:14;;;;;;;2.40;1.80;;;8.20;87.50;;;;;;4944036;28;21152;-81
2023/04/26 03:10:53;;;;;;;2.80;2.00;;;8.10;87.70;;;;;;4943251;29;20464;-79
2023/04/26 03:13:33;;;;;;;2.70;1.67;;;8.20;88.30;;;;;;4934090;29;20494;-83
2023/04/26 03:16:07;;;;;;;3.03;2.30;;;8.20;88.20;;;;;;4942545;28;20465;-83
2023/04/26 03:18:39;;;;;;;3.07;2.20;;;8.10;88.50;;;;;;4954206;28;20502;-82
2023/04/26 03:21:09;;;;;;;3.50;2.07;;;8.00;88.90;;;;;;4937990;29;20462;-83
2023/04/26 03:23:46;;;;;;;2.27;2.07;;;8.00;89.30;;;;;;4937580;29;20512;-82
2023/04/26 03:26:18;;;;;;;7.33;2.00;;;8.00;89.60;;;;;;4940750;28;21042;-82
2023/04/26 03:28:55;;;;;;;4.67;2.30;;;8.10;89.80;;;;;;4935399;29;20488;-82
2023/04/26 03:31:32;;;;;;;1.83;1.70;;;8.10;89.80;;;;;;4949994;29;20457;-81
2023/04/26 03:34:26;;;;;;;2.63;2.10;;;8.10;89.90;;;;;;4951042;29;21064;-81
2023/04/26 03:37:09;;;;;;;3.20;2.83;;;8.00;89.90;;;;;;4943158;29;20599;-81
2023/04/26 03:39:39;;;;;;;3.43;2.37;;;8.00;90.10;;;;;;4942093;28;20516;-81
2023/04/26 03:42:12;;;;;;;3.73;2.27;;;8.00;90.10;;;;;;4946847;29;20469;-82
2023/04/26 03:44:47;;;;;;;3.07;2.63;;;7.90;90.20;;;;;;4931849;29;20615;-82
2023/04/26 03:47:16;;;;;;;3.60;2.70;;;7.90;90.30;;;;;;4942638;28;20454;-83
2023/04/26 03:49:47;;;;;;;5.63;3.33;;;7.90;90.40;;;;;;4945061;29;20805;-83
2023/04/26 03:52:14;;;;;;;4.83;2.60;;;7.90;90.40;;;;;;4950902;28;20533;-81
2023/04/26 03:54:45;;;;;;;3.57;2.70;;;7.90;90.40;;;;;;4943909;28;20826;-82
2023/04/26 03:57:12;;;;;;;2.80;2.03;;;7.90;90.50;;;;;;4944077;29;20454;-82
2023/04/26 03:59:49;;;;;;;6.60;2.80;;;7.80;90.30;;;;;;4949217;29;20453;-82
2023/04/26 04:02:15;;;;;;;3.90;2.33;;;7.80;90.40;;;;;;4950629;29;20468;-81
2023/04/26 04:05:21;;;;;;;2.87;2.50;;;7.90;90.60;;;;;;4952051;28;20454;-82
2023/04/26 04:08:03;;;;;;;3.40;2.73;;;7.80;90.50;;;;;;4943073;28;20529;-81
2023/04/26 04:10:44;;;;;;;2.80;2.50;;;7.80;90.60;;;;;;4940581;29;20450;-82
2023/04/26 04:13:15;;;;;;;4.83;2.80;;;7.80;90.80;;;;;;4944836;29;20510;-80
2023/04/26 04:15:48;;;;;;;5.13;2.93;;;7.80;90.90;;;;;;4936769;29;20497;-80
2023/04/26 04:18:23;;;;;;;3.30;2.17;;;7.70;91.00;;;;;;4945528;29;20488;-81
2023/04/26 04:20:56;;;;;;;4.07;2.93;;;7.80;91.00;;;;;;4941665;28;20466;-82
2023/04/26 04:23:34;;;;;;;3.87;2.70;;;7.80;90.90;;;;;;4933665;28;20478;-82
2023/04/26 04:26:11;;;;;;;2.60;2.40;;;7.80;91.00;;;;;;4948632;29;20461;-83
2023/04/26 04:29:17;;;;;;;3.70;2.60;;;8.10;91.00;;;;;;4934589;29;21541;-82
2023/04/26 04:31:53;;;;;;;2.50;2.27;;;8.00;90.70;;;;;;4940544;29;20457;-81
2023/04/26 04:34:29;;;;;;;3.90;2.77;;;7.90;90.80;;;;;;4932616;29;20568;-82
2023/04/26 04:37:03;;;;;;;3.37;2.40;;;7.80;91.00;;;;;;4956920;28;20465;-82
2023/04/26 04:40:09;;;;;;;7.10;3.53;;;7.70;91.40;;;;;;4937971;29;20504;-82
2023/04/26 04:42:43;;;;;;;5.23;4.27;;;7.60;91.80;;;;;;4948650;29;20465;-81
2023/04/26 04:45:17;;;;;;;3.60;2.60;;;7.70;92.10;;;;;;4947379;28;20457;-82
2023/04/26 04:47:53;;;;;;;3.70;2.83;;;7.60;92.20;;;;;;4923443;29;20468;-83
2023/04/26 04:50:26;;;;;;;3.87;2.70;;;7.70;92.40;;;;;;4938520;29;20458;-82
2023/04/26 04:53:37;;;;;;;6.67;3.30;;;7.70;92.30;;;;;;4937893;29;20469;-83
2023/04/26 04:59:16;;;;;;;2.80;2.30;;;7.80;92.40;;;;;;5763646;22;20514;-83
2023/04/26 05:01:53;;;;;;;4.53;2.50;;;7.90;92.40;;;;;;4983213;23;20521;-83
2023/04/26 05:04:22;;;;;;;3.47;2.00;;;8.00;92.10;;;;;;5120136;23;20512;-83
2023/04/26 05:06:55;;;;;;;3.43;2.03;;;8.00;92.00;;;;;;4969216;28;20463;-82
2023/04/26 05:09:47;;;;;;;2.40;2.20;;;8.00;92.00;;;;;;4945950;28;20480;-81
2023/04/26 05:12:17;;;;;;;2.50;2.30;;;8.30;91.60;;;;;;4969406;28;20481;-84
2023/04/26 05:14:51;;;;;;;3.80;2.60;;;8.20;91.50;;;;;;4951778;28;20469;-83
2023/04/26 05:17:26;;;;;;;2.90;2.37;;;8.30;91.50;;;;;;4955301;28;20460;-82
2023/04/26 05:20:16;;;;;;;3.20;2.80;;;8.40;91.50;;;;;;4967628;28;20950;-82
2023/04/26 05:22:50;;;;;;;5.80;3.43;;;8.30;92.00;;;;;;4942190;29;20847;-83
2023/04/26 05:25:21;;;;;;;4.50;3.10;;;8.20;92.60;;;;;;4956299;28;20499;-81
2023/04/26 05:27:52;;;;;;;3.60;3.07;;;8.20;92.90;;;;;;4976401;28;20469;-83
2023/04/26 05:30:45;;;;;;;6.63;3.30;;;8.20;93.10;;;;;;4956778;29;20453;-83
2023/04/26 05:33:38;;;;;;;8.57;7.70;;;8.20;93.20;;;;;;4970175;28;20457;-82
2023/04/26 05:39:06;;;;;;;4.53;3.43;;;8.20;94.00;;;;;;5168923;23;20526;-83
2023/04/26 05:42:08;;;;;;;3.70;2.50;;;8.20;94.60;;;;;;4927388;29;20514;-82
2023/04/26 05:44:49;;;;;;;8.27;3.57;;;8.10;94.70;;;;;;4934655;29;20482;-80
2023/04/26 05:47:48;;;;;;;3.40;2.73;;;8.10;94.80;;;;;;4913407;29;20494;-82
2023/04/26 05:50:25;;;;;;;4.00;3.20;;;8.00;94.90;;;;;;4915971;29;20455;-82
2023/04/26 05:53:03;;;;;;;3.80;3.10;;;8.20;94.70;;;;;;4903494;29;20958;-82
2023/04/26 05:55:38;;;;;;;4.63;3.33;;;8.30;94.50;;;;;;4921743;29;20466;-82
2023/04/26 05:58:15;;;;;;;3.03;2.60;;;8.20;94.30;;;;;;4903967;29;20558;-82
2023/04/26 06:00:55;;;;;;;6.13;3.93;;;8.40;93.70;;;;;;4903914;29;20526;-82
2023/04/26 06:03:43;;;;;;;4.43;3.03;;;8.50;92.70;;;;;;4902878;29;20509;-83
2023/04/26 06:06:18;;;;;;;3.73;2.20;;;8.60;92.00;;;;;;4897537;29;20463;-83
2023/04/26 06:08:55;;;;;;;4.10;2.90;;;8.70;91.30;;;;;;4907259;29;20505;-81
2023/04/26 06:11:51;;;;;;;2.90;2.17;;;8.90;91.00;;;;;;4919835;29;20474;-83
2023/04/26 06:17:49;;;;;;;3.93;3.53;;;14.20;78.40;;;;;;4914712;29;20837;-82
2023/04/26 06:20:55;;;;;;;3.63;2.73;;;17.20;63.10;;;;;;4903955;29;21060;-83
2023/04/26 06:23:27;;;;;;;5.07;3.10;;;18.80;56.20;;;;;;4897386;29;20488;-82
2023/04/26 06:26:53;;;;;;;5.40;2.90;;;19.80;52.30;;;;;;4898394;29;20460;-83
2023/04/26 06:29:38;;;;;;;4.57;3.33;;;19.90;50.40;;;;;;4915269;29;20481;-83
2023/04/26 06:32:13;;;;;;;4.00;3.60;;;21.40;49.80;;;;;;4923956;29;20450;-83
2023/04/26 06:35:03;;;;;;;5.17;3.40;;;22.70;45.60;;;;;;4908465;29;20450;-81
2023/04/26 06:37:53;;;;;;;4.73;3.07;;;22.10;44.20;;;;;;4920860;29;21090;-81
2023/04/26 06:40:22;;;;;;;3.33;2.60;;;19.70;44.70;;;;;;4906684;29;20462;-83
2023/04/26 06:42:53;;;;;;;3.80;3.00;;;16.90;47.60;;;;;;4917454;29;20537;-79
2023/04/26 06:45:31;;;;;;;6.23;3.50;;;15.10;51.10;;;;;;4924096;29;20462;-80
2023/04/26 06:48:04;;;;;;;4.27;3.10;;;13.80;54.30;;;;;;4920598;29;20479;-82
2023/04/26 06:50:30;;;;;;;5.00;3.20;;;13.00;57.00;;;;;;4919863;29;20450;-82
2023/04/26 06:53:14;;;;;;;4.57;3.77;;;12.50;58.80;;;;;;4903732;29;20480;-83
2023/04/26 06:55:52;;;;;;;5.17;3.20;;;12.70;60.20;;;;;;4905301;29;20467;-80
2023/04/26 06:58:36;;;;;;;3.77;3.40;;;13.30;59.60;;;;;;4917339;29;20479;-82
2023/04/26 07:01:20;;;;;;;6.13;3.00;;;13.20;58.60;;;;;;4902923;29;20450;-83
2023/04/26 07:03:51;;;;;;;4.67;3.57;;;13.00;59.30;;;;;;4916261;29;20485;-84
2023/04/26 07:06:30;;;;;;;4.20;3.70;;;13.90;59.60;;;;;;4903813;29;20454;-81
2023/04/26 07:09:11;;;;;;;5.83;3.50;;;14.00;57.90;;;;;;4899730;29;20491;-83
2023/04/26 07:11:55;;;;;;;3.53;3.23;;;13.20;58.20;;;;;;4902009;29;20473;-83
2023/04/26 07:14:32;;;;;;;3.90;2.70;;;12.30;59.60;;;;;;4892518;29;20477;-82
2023/04/26 07:17:05;;;;;;;3.60;2.57;;;11.90;61.30;;;;;;4915676;29;20466;-83
2023/04/26 07:19:52;;;;;;;;;;;;;;;;;;;;;
2023/04/26 07:22:32;;;;;;;5.50;3.80;;;12.50;63.20;;;;;;4917733;29;20458;-81
2023/04/26 07:25:08;;;;;;;3.63;3.33;;;14.40;60.60;;;;;;4917783;29;20485;-83
2023/04/26 07:27:51;;;;;;;7.33;3.63;;;15.20;57.50;;;;;;4883908;29;20561;-82
2023/04/26 07:31:02;;;;;;;4.47;3.70;;;15.30;56.80;;;;;;4919487;29;20565;-82
2023/04/26 07:33:39;;;;;;;4.40;3.03;;;15.60;56.10;;;;;;4915118;29;20459;-82
2023/04/26 07:36:20;;;;;;;5.73;3.77;;;15.80;55.60;;;;;;4921207;29;20927;-81
2023/04/26 07:42:32;;;;;;;4.50;3.17;;;16.70;53.40;;;;;;4887461;29;20483;-83
2023/04/26 07:45:58;;;;;;;;;;;;;;;;;;;;;
2023/04/26 07:48:57;;;;;;;4.03;3.03;;;15.50;52.10;;;;;;4918596;29;20878;-83
2023/04/26 07:52:01;;;;;;;3.00;2.80;;;14.10;54.70;;;;;;4900177;29;20508;-82
2023/04/26 07:54:53;;;;;;;5.27;3.40;;;13.30;56.90;;;;;;4905110;29;20474;-83
2023/04/26 07:57:40;;;;;;;5.60;2.93;;;13.30;57.30;;;;;;4917698;29;20463;-83
2023/04/26 08:00:40;;;;;;;2.70;2.33;;;12.90;58.10;;;;;;4909828;29;20565;-84
2023/04/26 08:03:27;;;;;;;3.23;1.50;;;12.60;57.80;;;;;;4886930;29;21090;-83
2023/04/26 08:06:33;;;;;;;3.17;1.90;;;12.20;56.90;;;;;;4901760;29;20458;-84
2023/04/26 08:09:23;;;;;;;3.30;2.00;;;12.60;57.20;;;;;;4903231;29;20473;-85
2023/04/26 08:11:58;;;;;;;2.50;2.03;;;13.00;56.90;;;;;;4929727;29;20474;-82
2023/04/26 08:15:03;;;;;;;5.17;2.03;;;13.00;56.10;;;;;;4917492;29;20457;-82
2023/04/26 08:17:47;;;;;;;3.70;2.50;;;13.20;55.50;;;;;;4919274;29;20482;-83
2023/04/26 08:20:31;;;;;;;5.00;2.10;;;13.70;55.10;;;;;;4922863;29;20459;-83
2023/04/26 08:23:35;;;;;;;3.07;2.50;;;13.70;54.50;;;;;;4903249;29;20454;-83
2023/04/26 08:26:17;;;;;;;2.37;2.17;;;13.60;54.30;;;;;;4921396;29;20440;-82
2023/04/26 08:29:14;;;;;;;3.00;2.30;;;13.70;55.20;;;;;;4913762;29;20476;-82
2023/04/26 08:32:11;;;;;;;3.30;2.20;;;14.70;54.50;;;;;;4919288;29;20442;-83
2023/04/26 08:35:05;;;;;;;3.70;2.10;;;15.70;52.40;;;;;;4921937;29;20462;-82
2023/04/26 08:38:08;;;;;;;2.53;2.33;;;15.70;51.10;;;;;;4936534;28;20606;-82
2023/04/26 08:40:57;;;;;;;3.10;2.07;;;14.70;52.00;;;;;;4903193;29;20470;-83
2023/04/26 08:43:27;;;;;;;3.70;1.83;;;13.70;53.00;;;;;;4906059;29;20480;-82
2023/04/26 08:46:28;;;;;;;2.67;2.20;;;13.00;54.10;;;;;;4892644;29;20451;-82
2023/04/26 08:49:51;;;;;;;2.23;1.90;;;12.50;55.50;;;;;;4901081;29;21034;-81
2023/04/26 08:52:35;;;;;;;4.93;2.60;;;12.10;57.00;;;;;;4901888;29;20462;-82
2023/04/26 08:55:21;;;;;;;3.10;2.30;;;12.00;58.40;;;;;;4902468;29;20545;-82
2023/04/26 08:57:57;;;;;;;4.67;2.00;;;12.30;57.60;;;;;;4909814;28;20462;-82
2023/04/26 09:01:06;;;;;;;2.30;1.90;;;13.00;57.00;;;;;;4940348;28;20455;-83
2023/04/26 09:04:00;;;;;;;3.27;2.23;;;13.40;55.70;;;;;;4936344;28;20447;-83
2023/04/26 09:06:54;;;;;;;;;;;;;;;;;;;;;
2023/04/26 09:09:48;;;;;;;3.00;2.70;;;14.90;51.90;;;;;;4912540;29;20459;-83
2023/04/26 09:12:32;;;;;;;2.30;2.10;;;15.10;51.30;;;;;;4906242;29;20442;-82
2023/04/26 09:15:29;;;;;;;1.70;1.60;;;14.60;51.10;;;;;;4919397;28;20438;-82
2023/04/26 09:18:53;;;;;;;2.23;1.77;;;13.70;51.60;;;;;;4922473;29;20511;-83
2023/04/26 09:22:07;;;;;;;3.03;2.83;;;13.20;53.10;;;;;;4913292;29;20474;-82
2023/04/26 09:24:55;;;;;;;2.50;2.30;;;13.10;53.00;;;;;;4920261;29;20503;-82
2023/04/26 09:28:03;;;;;;;2.63;2.20;;;12.90;53.00;;;;;;4904900;29;20550;-82
2023/04/26 09:31:10;;;;;;;3.10;2.57;;;12.40;54.20;;;;;;4842041;29;20846;-82
2023/04/26 09:34:22;;;;;;;2.93;2.27;;;12.40;54.80;;;;;;4911496;29;20501;-82
2023/04/26 09:37:01;;;;;;;3.67;2.40;;;12.20;55.10;;;;;;4912486;29;20490;-82
2023/04/26 09:39:51;;;;;;;4.43;2.30;;;12.00;55.30;;;;;;4899426;29;20494;-83
2023/04/26 09:46:12;;;;;;;3.33;2.63;;;12.50;55.30;;;;;;4919298;29;20486;-83
2023/04/26 09:49:16;;;;;;;2.43;2.23;;;12.60;54.40;;;;;;4904720;29;20557;-82
2023/04/26 09:52:18;;;;;;;2.60;2.40;;;13.00;52.30;;;;;;4899889;29;20459;-81
2023/04/26 09:55:36;;;;;;;2.67;2.13;;;12.90;52.10;;;;;;4916910;29;20526;-80
2023/04/26 09:58:10;;;;;;;2.43;2.10;;;12.50;52.20;;;;;;4897926;29;20478;-80
2023/04/26 10:04:11;;;;;;;3.10;2.23;;;12.10;52.70;;;;;;4914615;29;20467;-80
2023/04/26 10:06:51;;;;;;;2.63;2.30;;;12.00;53.30;;;;;;4905300;29;20458;-80
2023/04/26 10:09:39;;;;;;;2.87;1.97;;;12.20;53.30;;;;;;4929553;29;20484;-83
2023/04/26 10:12:33;;;;;;;3.37;2.20;;;12.20;54.70;;;;;;4906584;29;20450;-83
2023/04/26 10:15:41;;;;;;;3.00;2.27;;;12.10;55.00;;;;;;4924763;29;20459;-81
2023/04/26 10:18:42;;;;;;;2.87;2.67;;;11.80;55.40;;;;;;4899424;29;20509;-82
2023/04/26 10:21:46;;;;;;;2.90;2.50;;;11.80;55.90;;;;;;4918523;29;20522;-82
2023/04/26 10:24:28;;;;;;;3.43;1.80;;;12.10;56.30;;;;;;4910882;29;20490;-82
2023/04/26 10:30:28;;;;;;;2.87;2.23;;;12.30;55.00;;;;;;4941316;29;20520;-82
2023/04/26 10:33:26;;;;;;;3.50;2.10;;;12.20;54.70;;;;;;4938615;29;20449;-81
2023/04/26 10:36:37;;;;;;;3.13;2.83;;;12.50;54.30;;;;;;4943863;29;20431;-81
2023/04/26 10:39:41;;;;;;;2.57;2.37;;;13.00;53.00;;;;;;4920407;29;21048;-84
2023/04/26 10:42:39;;;;;;;3.37;2.30;;;12.80;52.80;;;;;;4922439;29;20474;-83
2023/04/26 10:45:39;;;;;;;3.20;1.90;;;13.10;53.10;;;;;;4926209;29;20486;-83
2023/04/26 10:48:44;;;;;;;4.77;3.17;;;13.50;52.50;;;;;;4915077;29;20529;-81
2023/04/26 10:59:05;;;;;;;3.27;2.97;;;13.20;51.20;;;;;;4907144;29;21076;-84
2023/04/26 11:02:02;;;;;;;1.73;1.63;;;13.60;51.30;;;;;;4916197;29;20459;-83
2023/04/26 11:05:24;;;;;;;;;;;;;;;;;;;;;
2023/04/26 11:08:09;;;;;;;3.40;2.17;;;13.80;50.10;;;;;;4941731;29;21230;-81
2023/04/26 11:11:09;;;;;;;2.30;2.13;;;13.70;49.60;;;;;;4938406;29;20575;-83
2023/04/26 11:14:13;;;;;;;3.87;2.73;;;13.40;49.90;;;;;;4942948;29;20567;-83
2023/04/26 11:20:11;;;;;;;2.73;2.40;;;13.30;50.50;;;;;;4938562;29;20454;-83
2023/04/26 11:22:52;;;;;;;2.37;2.27;;;13.30;50.50;;;;;;4934321;29;20461;-83
2023/04/26 11:25:45;;;;;;;2.27;1.60;;;13.60;50.00;;;;;;4938326;28;20520;-83
2023/04/26 11:28:45;;;;;;;2.60;2.40;;;13.70;49.30;;;;;;4942193;29;20532;-84
2023/04/26 11:31:57;;;;;;;2.00;1.90;;;13.60;49.70;;;;;;4931011;29;20503;-84
2023/04/26 11:34:52;;;;;;;3.40;2.27;;;14.10;49.20;;;;;;4939024;29;20461;-83
2023/04/26 11:37:41;;;;;;;4.50;2.10;;;14.00;48.70;;;;;;4908327;29;20466;-83
2023/04/26 11:40:39;;;;;;;2.80;1.90;;;13.80;48.30;;;;;;4947605;29;21016;-83
2023/04/26 11:43:19;;;;;;;2.30;2.10;;;13.70;48.50;;;;;;4941047;29;20466;-82
2023/04/26 11:46:14;;;;;;;2.03;1.87;;;13.80;48.50;;;;;;4934884;29;20581;-82
2023/04/26 11:49:13;;;;;;;2.40;2.20;;;14.30;47.80;;;;;;4950987;29;20485;-84
2023/04/26 11:52:03;;;;;;;1.90;1.80;;;15.60;45.40;;;;;;4950945;29;20526;-83
2023/04/26 11:55:50;;;;;;;2.83;2.63;;;16.20;44.20;;;;;;4951583;29;20462;-82
2023/04/26 11:58:14;;;;;;;4.17;2.27;;;15.90;44.10;;;;;;4953224;29;20475;-81
2023/04/26 12:01:07;;;;;;;2.70;1.83;;;15.70;44.20;;;;;;4964809;28;20494;-83
2023/04/26 12:04:04;;;;;;;2.63;2.07;;;16.20;43.90;;;;;;4941424;29;20457;-83
2023/04/26 12:07:27;;;;;;;2.10;2.00;;;16.20;43.20;;;;;;4946028;29;20450;-83
2023/04/26 12:10:59;;;;;;;2.70;2.50;;;15.90;42.00;;;;;;4929204;29;20437;-83
2023/04/26 12:13:43;;;;;;;2.57;2.37;;;15.70;42.80;;;;;;4941341;29;20453;-83
2023/04/26 12:23:46;;;;;;;2.87;2.67;;;16.10;44.70;;;;;;4953640;29;20466;-82
2023/04/26 12:27:05;;;;;;;2.10;1.90;;;15.60;44.40;;;;;;4957183;28;20474;-82
2023/04/26 12:30:22;;;;;;;;;;;;;;;;;;;;;
2023/04/26 12:33:00;;;;;;;3.10;2.80;;;16.00;44.40;;;;;;4959076;29;20469;-82
2023/04/26 12:36:34;;;;;;;4.83;2.60;;;16.40;44.00;;;;;;4955023;28;20446;-82
2023/04/26 12:39:37;;;;;;;3.17;2.47;;;16.00;43.10;;;;;;4956915;29;20457;-82
2023/04/26 12:42:38;;;;;;;3.03;2.73;;;15.10;44.30;;;;;;4973709;28;20469;-82
2023/04/26 12:45:32;;;;;;;5.50;2.60;;;14.70;45.00;;;;;;5309303;23;20476;-82
2023/04/26 12:48:51;;;;;;;3.23;2.50;;;14.70;46.40;;;;;;5003054;28;20495;-81
2023/04/26 12:55:01;;;;;;;2.70;2.50;;;15.60;46.50;;;;;;4970099;28;20456;-82
2023/04/26 12:57:52;;;;;;;7.50;3.13;;;16.30;44.80;;;;;;4995812;28;20443;-82
2023/04/26 13:00:57;;;;;;;3.27;2.70;;;15.90;44.70;;;;;;4977688;28;20439;-82
2023/04/26 13:03:46;;;;;;;2.80;2.40;;;15.90;45.70;;;;;;4976700;28;20528;-82
2023/04/26 13:06:53;;;;;;;3.47;3.00;;;16.20;45.50;;;;;;4992389;28;21153;-84
2023/04/26 13:09:39;;;;;;;2.37;2.17;;;16.00;46.20;;;;;;5111209;23;20496;-82
2023/04/26 13:13:06;;;;;;;2.60;2.40;;;16.30;45.10;;;;;;4972377;28;20478;-82
2023/04/26 13:19:49;;;;;;;4.60;2.53;;;16.20;44.10;;;;;;4966948;28;20504;-84
2023/04/26 13:22:50;;;;;;;2.50;2.30;;;16.10;44.40;;;;;;4964422;28;20455;-83
2023/04/26 13:26:12;;;;;;;2.53;2.30;;;17.00;43.30;;;;;;4966242;28;20473;-82
2023/04/26 13:29:06;;;;;;;3.20;2.90;;;17.30;42.40;;;;;;4963605;28;20464;-83
2023/04/26 13:31:54;;;;;;;3.27;2.50;;;16.80;42.00;;;;;;4952588;29;20868;-81
2023/04/26 13:35:22;;;;;;;5.80;2.40;;;16.50;43.70;;;;;;4950513;28;20452;-81
2023/04/26 13:38:41;;;;;;;3.63;2.57;;;16.50;43.30;;;;;;4964013;28;20759;-81
2023/04/26 13:41:41;;;;;;;3.73;2.67;;;16.20;43.80;;;;;;4918363;28;20431;-81
2023/04/26 13:44:49;;;;;;;4.80;2.63;;;15.70;44.00;;;;;;4966018;28;20427;-81
2023/04/26 13:51:21;;;;;;;3.27;2.80;;;15.80;45.50;;;;;;4966574;29;20920;-82
2023/04/26 13:57:50;;;;;;;3.37;2.67;;;16.90;44.30;;;;;;4962537;28;20489;-84
2023/04/26 14:00:51;;;;;;;2.47;2.20;;;16.90;44.40;;;;;;4965624;29;20561;-83
2023/04/26 14:03:42;;;;;;;3.90;2.70;;;17.10;43.20;;;;;;4967580;28;20456;-84
2023/04/26 14:06:43;;;;;;;2.83;2.60;;;17.50;42.50;;;;;;4953447;29;20473;-82
2023/04/26 14:09:18;;;;;;;3.47;2.40;;;17.40;42.60;;;;;;4956909;28;20477;-84
2023/04/26 14:11:58;;;;;;;3.03;2.40;;;17.10;42.60;;;;;;4954802;28;20464;-82
2023/04/26 14:15:01;;;;;;;4.30;2.77;;;17.10;44.30;;;;;;4952447;28;20567;-82
2023/04/26 14:18:10;;;;;;;2.97;2.67;;;17.30;44.60;;;;;;4974747;28;20475;-83
2023/04/26 14:20:53;;;;;;;2.50;2.30;;;17.50;43.70;;;;;;4983886;28;20467;-83
2023/04/26 14:24:07;;;;;;;2.57;2.23;;;17.60;43.80;;;;;;4965278;28;20514;-83
2023/04/26 14:27:22;;;;;;;2.60;2.40;;;17.60;43.40;;;;;;4958193;28;20550;-82
2023/04/26 14:30:20;;;;;;;2.50;2.30;;;17.50;43.30;;;;;;4959550;28;20468;-83
2023/04/26 14:33:04;;;;;;;3.87;2.10;;;17.20;43.00;;;;;;4965861;29;20456;-82
2023/04/26 14:36:28;;;;;;;3.17;2.30;;;17.00;43.30;;;;;;4938215;29;20451;-81
2023/04/26 14:39:16;;;;;;;2.90;2.70;;;16.60;43.30;;;;;;4964331;28;20532;-81
2023/04/26 14:41:57;;;;;;;2.53;2.30;;;16.30;43.80;;;;;;4954916;28;20960;-82
2023/04/26 14:45:01;;;;;;;2.13;1.93;;;16.30;43.90;;;;;;4953503;28;20575;-82
2023/04/26 14:47:47;;;;;;;3.83;2.60;;;16.00;43.50;;;;;;4947547;29;21017;-83
2023/04/26 14:50:43;;;;;;;2.87;2.57;;;16.00;44.00;;;;;;4959861;28;20449;-82
2023/04/26 14:53:20;;;;;;;3.77;2.77;;;16.00;44.00;;;;;;4961685;28;20453;-82
2023/04/26 14:56:36;;;;;;;2.50;2.30;;;16.20;44.40;;;;;;4955005;29;20464;-82
2023/04/26 14:59:12;;;;;;;3.47;2.40;;;16.30;43.40;;;;;;4956084;28;20473;-82
2023/04/26 15:02:05;;;;;;;1.80;1.70;;;16.00;43.70;;;;;;4959826;29;20453;-82
2023/04/26 15:04:53;;;;;;;2.27;2.03;;;16.10;43.60;;;;;;4960909;28;20457;-83
2023/04/26 15:07:32;;;;;;;2.23;2.03;;;16.20;43.10;;;;;;4960666;28;20947;-83
2023/04/26 15:10:17;;;;;;;1.37;1.27;;;15.90;43.60;;;;;;4962398;28;20471;-83
2023/04/26 15:13:15;;;;;;;3.73;2.40;;;15.90;44.90;;;;;;4958417;29;20469;-82
2023/04/26 15:16:29;;;;;;;3.13;2.67;;;16.20;45.10;;;;;;4947625;28;20797;-83
2023/04/26 15:19:10;;;;;;;3.30;2.13;;;16.10;45.00;;;;;;4958398;28;20472;-84
2023/04/26 15:22:00;;;;;;;1.80;1.70;;;15.80;45.40;;;;;;4956657;28;20492;-82
2023/04/26 15:24:39;;;;;;;3.00;2.80;;;15.60;45.40;;;;;;4961090;28;20499;-82
2023/04/26 15:30:33;;;;;;;1.93;1.83;;;16.00;45.70;;;;;;4955717;28;20461;-82
2023/04/26 15:33:06;;;;;;;2.40;2.20;;;15.70;44.70;;;;;;4966048;28;20461;-84
2023/04/26 15:36:09;;;;;;;3.10;2.23;;;15.50;44.50;;;;;;4955084;28;20469;-84
2023/04/26 15:39:05;;;;;;;2.40;2.20;;;15.30;45.40;;;;;;4919185;29;20494;-83
2023/04/26 15:41:49;;;;;;;2.63;2.40;;;15.70;45.00;;;;;;4895327;29;20442;-83
2023/04/26 15:44:40;;;;;;;3.60;2.60;;;15.50;44.80;;;;;;4920559;29;20466;-82
2023/04/26 15:47:13;;;;;;;2.07;1.90;;;15.40;45.10;;;;;;4902975;29;20465;-82